sensor_id;sensor_type;location;lat;lon;timestamp;P1;durP1;ratioP1;P2;durP2;ratioP2
16669;SDS011;8448;52.034;5.158;2022-12-05T00:00:50;53.57;;;26.97;;
16669;SDS011;8448;52.034;5.158;2022-12-05T00:03:17;55.47;;;27.57;;
16669;SDS011;8448;52.034;5.158;2022-12-05T00:05:46;53.73;;;25.87;;
16669;SDS011;8448;52.034;5.158;2022-12-05T00:08:13;56.33;;;26.60;;
16669;SDS011;8448;52.034;5.158;2022-12-05T00:10:41;54.77;;;27.23;;
16669;SDS011;8448;52.034;5.158;2022-12-05T00:13:08;50.53;;;25.03;;
16669;SDS011;8448;52.034;5.158;2022-12-05T00:15:36;51.47;;;25.50;;
16669;SDS011;8448;52.034;5.158;2022-12-05T00:18:04;52.27;;;25.70;;
16669;SDS011;8448;52.034;5.158;2022-12-05T00:20:32;50.93;;;26.07;;
16669;SDS011;8448;52.034;5.158;2022-12-05T00:23:01;53.33;;;26.60;;
16669;SDS011;8448;52.034;5.158;2022-12-05T00:25:28;49.93;;;25.67;;
16669;SDS011;8448;52.034;5.158;2022-12-05T00:27:56;56.13;;;27.03;;
16669;SDS011;8448;52.034;5.158;2022-12-05T00:30:23;52.47;;;26.03;;
16669;SDS011;8448;52.034;5.158;2022-12-05T00:32:50;56.23;;;25.97;;
16669;SDS011;8448;52.034;5.158;2022-12-05T00:35:18;52.77;;;26.13;;
16669;SDS011;8448;52.034;5.158;2022-12-05T00:37:45;47.40;;;24.97;;
16669;SDS011;8448;52.034;5.158;2022-12-05T00:40:13;54.00;;;24.67;;
16669;SDS011;8448;52.034;5.158;2022-12-05T00:42:41;50.90;;;25.33;;
16669;SDS011;8448;52.034;5.158;2022-12-05T00:45:09;47.80;;;24.20;;
16669;SDS011;8448;52.034;5.158;2022-12-05T00:47:36;51.07;;;26.17;;
16669;SDS011;8448;52.034;5.158;2022-12-05T00:50:04;52.43;;;26.40;;
16669;SDS011;8448;52.034;5.158;2022-12-05T00:52:32;50.90;;;24.27;;
16669;SDS011;8448;52.034;5.158;2022-12-05T00:55:00;51.20;;;24.70;;
16669;SDS011;8448;52.034;5.158;2022-12-05T00:57:28;49.20;;;23.70;;
16669;SDS011;8448;52.034;5.158;2022-12-05T00:59:55;47.33;;;23.83;;
16669;SDS011;8448;52.034;5.158;2022-12-05T01:02:23;50.90;;;25.80;;
16669;SDS011;8448;52.034;5.158;2022-12-05T01:04:50;54.63;;;25.93;;
16669;SDS011;8448;52.034;5.158;2022-12-05T01:07:18;53.20;;;25.37;;
16669;SDS011;8448;52.034;5.158;2022-12-05T01:09:45;47.33;;;25.00;;
16669;SDS011;8448;52.034;5.158;2022-12-05T01:12:13;49.93;;;25.07;;
16669;SDS011;8448;52.034;5.158;2022-12-05T01:14:41;51.33;;;25.13;;
16669;SDS011;8448;52.034;5.158;2022-12-05T01:17:09;47.47;;;24.30;;
16669;SDS011;8448;52.034;5.158;2022-12-05T01:19:36;51.50;;;25.67;;
16669;SDS011;8448;52.034;5.158;2022-12-05T01:22:03;52.47;;;25.17;;
16669;SDS011;8448;52.034;5.158;2022-12-05T01:24:31;53.17;;;24.93;;
16669;SDS011;8448;52.034;5.158;2022-12-05T01:26:58;50.63;;;25.37;;
16669;SDS011;8448;52.034;5.158;2022-12-05T01:29:25;54.80;;;25.90;;
16669;SDS011;8448;52.034;5.158;2022-12-05T01:31:54;51.53;;;26.23;;
16669;SDS011;8448;52.034;5.158;2022-12-05T01:34:22;52.67;;;25.27;;
16669;SDS011;8448;52.034;5.158;2022-12-05T01:36:49;49.47;;;24.33;;
16669;SDS011;8448;52.034;5.158;2022-12-05T01:39:16;49.23;;;25.60;;
16669;SDS011;8448;52.034;5.158;2022-12-05T01:41:45;54.57;;;26.17;;
16669;SDS011;8448;52.034;5.158;2022-12-05T01:47:19;54.10;;;25.60;;
16669;SDS011;8448;52.034;5.158;2022-12-05T01:49:48;49.13;;;24.40;;
16669;SDS011;8448;52.034;5.158;2022-12-05T01:52:16;52.77;;;25.23;;
16669;SDS011;8448;52.034;5.158;2022-12-05T01:54:46;52.00;;;25.90;;
16669;SDS011;8448;52.034;5.158;2022-12-05T01:57:15;52.70;;;26.67;;
16669;SDS011;8448;52.034;5.158;2022-12-05T01:59:43;51.00;;;24.80;;
16669;SDS011;8448;52.034;5.158;2022-12-05T02:02:12;51.43;;;25.13;;
16669;SDS011;8448;52.034;5.158;2022-12-05T02:04:42;49.57;;;25.30;;
16669;SDS011;8448;52.034;5.158;2022-12-05T02:07:15;51.13;;;25.33;;
16669;SDS011;8448;52.034;5.158;2022-12-05T02:09:43;53.17;;;26.33;;
16669;SDS011;8448;52.034;5.158;2022-12-05T02:12:11;52.53;;;25.77;;
16669;SDS011;8448;52.034;5.158;2022-12-05T02:14:40;47.53;;;24.93;;
16669;SDS011;8448;52.034;5.158;2022-12-05T02:17:13;52.20;;;25.77;;
16669;SDS011;8448;52.034;5.158;2022-12-05T02:19:49;58.07;;;27.07;;
16669;SDS011;8448;52.034;5.158;2022-12-05T02:22:31;55.70;;;26.27;;
16669;SDS011;8448;52.034;5.158;2022-12-05T02:25:36;51.20;;;25.30;;
16669;SDS011;8448;52.034;5.158;2022-12-05T02:28:19;52.27;;;25.67;;
16669;SDS011;8448;52.034;5.158;2022-12-05T02:31:11;60.47;;;26.40;;
16669;SDS011;8448;52.034;5.158;2022-12-05T02:33:43;51.03;;;26.03;;
16669;SDS011;8448;52.034;5.158;2022-12-05T02:36:14;52.80;;;26.50;;
16669;SDS011;8448;52.034;5.158;2022-12-05T02:38:44;53.90;;;25.03;;
16669;SDS011;8448;52.034;5.158;2022-12-05T02:41:15;50.77;;;24.10;;
16669;SDS011;8448;52.034;5.158;2022-12-05T02:43:47;53.00;;;31.35;;
16669;SDS011;8448;52.034;5.158;2022-12-05T02:46:19;48.37;;;25.87;;
16669;SDS011;8448;52.034;5.158;2022-12-05T02:48:48;50.00;;;25.50;;
16669;SDS011;8448;52.034;5.158;2022-12-05T02:51:20;52.23;;;25.63;;
16669;SDS011;8448;52.034;5.158;2022-12-05T02:53:49;49.27;;;25.03;;
16669;SDS011;8448;52.034;5.158;2022-12-05T02:56:17;48.43;;;24.60;;
16669;SDS011;8448;52.034;5.158;2022-12-05T02:58:47;54.90;;;31.58;;
16669;SDS011;8448;52.034;5.158;2022-12-05T03:01:16;54.57;;;26.43;;
16669;SDS011;8448;52.034;5.158;2022-12-05T03:03:45;47.63;;;24.73;;
16669;SDS011;8448;52.034;5.158;2022-12-05T03:06:15;51.83;;;25.13;;
16669;SDS011;8448;52.034;5.158;2022-12-05T03:08:46;50.43;;;24.73;;
16669;SDS011;8448;52.034;5.158;2022-12-05T03:11:16;48.00;;;24.97;;
16669;SDS011;8448;52.034;5.158;2022-12-05T03:13:44;49.10;;;24.93;;
16669;SDS011;8448;52.034;5.158;2022-12-05T03:16:17;50.73;;;25.73;;
16669;SDS011;8448;52.034;5.158;2022-12-05T03:18:49;49.40;;;24.70;;
16669;SDS011;8448;52.034;5.158;2022-12-05T03:21:21;49.30;;;24.57;;
16669;SDS011;8448;52.034;5.158;2022-12-05T03:23:55;47.67;;;24.17;;
16669;SDS011;8448;52.034;5.158;2022-12-05T03:26:29;50.03;;;25.80;;
16669;SDS011;8448;52.034;5.158;2022-12-05T03:29:11;52.07;;;24.80;;
16669;SDS011;8448;52.034;5.158;2022-12-05T03:31:49;48.73;;;25.10;;
16669;SDS011;8448;52.034;5.158;2022-12-05T03:34:22;46.63;;;23.93;;
16669;SDS011;8448;52.034;5.158;2022-12-05T03:36:57;46.80;;;24.57;;
16669;SDS011;8448;52.034;5.158;2022-12-05T03:39:29;50.03;;;24.00;;
16669;SDS011;8448;52.034;5.158;2022-12-05T03:42:00;45.30;;;24.37;;
16669;SDS011;8448;52.034;5.158;2022-12-05T03:44:32;48.37;;;24.47;;
16669;SDS011;8448;52.034;5.158;2022-12-05T03:47:05;50.27;;;24.47;;
16669;SDS011;8448;52.034;5.158;2022-12-05T03:49:36;46.70;;;23.90;;
16669;SDS011;8448;52.034;5.158;2022-12-05T03:52:07;48.27;;;24.47;;
16669;SDS011;8448;52.034;5.158;2022-12-05T03:54:37;47.07;;;24.20;;
16669;SDS011;8448;52.034;5.158;2022-12-05T03:57:08;46.03;;;23.67;;
16669;SDS011;8448;52.034;5.158;2022-12-05T03:59:39;53.90;;;25.20;;
16669;SDS011;8448;52.034;5.158;2022-12-05T04:02:11;47.63;;;24.20;;
16669;SDS011;8448;52.034;5.158;2022-12-05T04:04:43;50.10;;;24.67;;
16669;SDS011;8448;52.034;5.158;2022-12-05T04:07:12;45.93;;;23.43;;
16669;SDS011;8448;52.034;5.158;2022-12-05T04:09:42;48.43;;;23.97;;
16669;SDS011;8448;52.034;5.158;2022-12-05T04:12:13;49.17;;;24.20;;
16669;SDS011;8448;52.034;5.158;2022-12-05T04:14:45;46.83;;;23.70;;
16669;SDS011;8448;52.034;5.158;2022-12-05T04:17:16;51.63;;;24.30;;
16669;SDS011;8448;52.034;5.158;2022-12-05T04:19:46;47.60;;;24.00;;
16669;SDS011;8448;52.034;5.158;2022-12-05T04:22:33;45.40;;;23.47;;
16669;SDS011;8448;52.034;5.158;2022-12-05T04:25:01;44.10;;;22.83;;
16669;SDS011;8448;52.034;5.158;2022-12-05T04:27:49;48.27;;;24.00;;
16669;SDS011;8448;52.034;5.158;2022-12-05T04:30:20;43.00;;;23.47;;
16669;SDS011;8448;52.034;5.158;2022-12-05T04:32:51;46.97;;;23.23;;
16669;SDS011;8448;52.034;5.158;2022-12-05T04:35:26;49.43;;;22.93;;
16669;SDS011;8448;52.034;5.158;2022-12-05T04:37:57;44.93;;;22.93;;
16669;SDS011;8448;52.034;5.158;2022-12-05T04:40:27;45.53;;;22.57;;
16669;SDS011;8448;52.034;5.158;2022-12-05T04:42:58;47.30;;;23.53;;
16669;SDS011;8448;52.034;5.158;2022-12-05T04:45:27;44.17;;;23.17;;
16669;SDS011;8448;52.034;5.158;2022-12-05T04:47:57;45.80;;;23.70;;
16669;SDS011;8448;52.034;5.158;2022-12-05T04:50:27;44.37;;;22.43;;
16669;SDS011;8448;52.034;5.158;2022-12-05T04:52:57;44.07;;;21.73;;
16669;SDS011;8448;52.034;5.158;2022-12-05T04:55:26;42.33;;;21.73;;
16669;SDS011;8448;52.034;5.158;2022-12-05T04:57:56;48.07;;;23.90;;
16669;SDS011;8448;52.034;5.158;2022-12-05T05:00:28;45.70;;;22.73;;
16669;SDS011;8448;52.034;5.158;2022-12-05T05:03:00;42.27;;;22.30;;
16669;SDS011;8448;52.034;5.158;2022-12-05T05:05:30;44.17;;;22.20;;
16669;SDS011;8448;52.034;5.158;2022-12-05T05:08:00;41.20;;;21.93;;
16669;SDS011;8448;52.034;5.158;2022-12-05T05:10:30;47.03;;;22.10;;
16669;SDS011;8448;52.034;5.158;2022-12-05T05:13:00;41.37;;;21.33;;
16669;SDS011;8448;52.034;5.158;2022-12-05T05:15:27;42.20;;;21.93;;
16669;SDS011;8448;52.034;5.158;2022-12-05T05:17:55;43.17;;;22.10;;
16669;SDS011;8448;52.034;5.158;2022-12-05T05:20:23;42.93;;;22.00;;
16669;SDS011;8448;52.034;5.158;2022-12-05T05:22:51;39.63;;;20.50;;
16669;SDS011;8448;52.034;5.158;2022-12-05T05:25:20;41.17;;;21.77;;
16669;SDS011;8448;52.034;5.158;2022-12-05T05:27:48;42.97;;;22.13;;
16669;SDS011;8448;52.034;5.158;2022-12-05T05:30:16;41.67;;;21.87;;
16669;SDS011;8448;52.034;5.158;2022-12-05T05:32:44;44.20;;;22.10;;
16669;SDS011;8448;52.034;5.158;2022-12-05T05:35:12;40.47;;;22.33;;
16669;SDS011;8448;52.034;5.158;2022-12-05T05:37:41;44.70;;;23.10;;
16669;SDS011;8448;52.034;5.158;2022-12-05T05:40:09;45.07;;;22.27;;
16669;SDS011;8448;52.034;5.158;2022-12-05T05:42:40;47.10;;;22.10;;
16669;SDS011;8448;52.034;5.158;2022-12-05T05:45:08;48.33;;;24.13;;
16669;SDS011;8448;52.034;5.158;2022-12-05T05:47:37;47.70;;;24.50;;
16669;SDS011;8448;52.034;5.158;2022-12-05T05:50:04;45.57;;;23.97;;
16669;SDS011;8448;52.034;5.158;2022-12-05T05:52:33;48.37;;;23.33;;
16669;SDS011;8448;52.034;5.158;2022-12-05T05:55:02;46.30;;;24.07;;
16669;SDS011;8448;52.034;5.158;2022-12-05T05:57:30;47.20;;;23.60;;
16669;SDS011;8448;52.034;5.158;2022-12-05T05:59:58;48.60;;;23.87;;
16669;SDS011;8448;52.034;5.158;2022-12-05T06:02:29;51.53;;;23.47;;
16669;SDS011;8448;52.034;5.158;2022-12-05T06:04:58;45.33;;;23.27;;
16669;SDS011;8448;52.034;5.158;2022-12-05T06:07:25;50.67;;;23.77;;
16669;SDS011;8448;52.034;5.158;2022-12-05T06:09:52;46.63;;;23.90;;
16669;SDS011;8448;52.034;5.158;2022-12-05T06:12:21;51.27;;;24.47;;
16669;SDS011;8448;52.034;5.158;2022-12-05T06:14:49;45.67;;;23.57;;
16669;SDS011;8448;52.034;5.158;2022-12-05T06:17:16;45.30;;;23.17;;
16669;SDS011;8448;52.034;5.158;2022-12-05T06:19:44;42.87;;;22.67;;
16669;SDS011;8448;52.034;5.158;2022-12-05T06:22:11;44.23;;;22.93;;
16669;SDS011;8448;52.034;5.158;2022-12-05T06:24:38;47.40;;;23.83;;
16669;SDS011;8448;52.034;5.158;2022-12-05T06:27:06;47.50;;;22.90;;
16669;SDS011;8448;52.034;5.158;2022-12-05T06:29:34;47.10;;;22.87;;
16669;SDS011;8448;52.034;5.158;2022-12-05T06:32:02;45.27;;;23.33;;
16669;SDS011;8448;52.034;5.158;2022-12-05T06:34:29;44.93;;;22.57;;
16669;SDS011;8448;52.034;5.158;2022-12-05T06:36:59;43.03;;;22.40;;
16669;SDS011;8448;52.034;5.158;2022-12-05T06:39:26;46.13;;;22.93;;
16669;SDS011;8448;52.034;5.158;2022-12-05T06:41:54;46.70;;;22.57;;
16669;SDS011;8448;52.034;5.158;2022-12-05T06:44:21;43.77;;;22.27;;
16669;SDS011;8448;52.034;5.158;2022-12-05T06:46:52;46.03;;;22.20;;
16669;SDS011;8448;52.034;5.158;2022-12-05T06:49:20;48.90;;;22.50;;
16669;SDS011;8448;52.034;5.158;2022-12-05T06:51:50;45.47;;;22.50;;
16669;SDS011;8448;52.034;5.158;2022-12-05T06:54:17;45.70;;;22.20;;
16669;SDS011;8448;52.034;5.158;2022-12-05T06:56:45;46.50;;;22.27;;
16669;SDS011;8448;52.034;5.158;2022-12-05T06:59:12;46.03;;;22.63;;
16669;SDS011;8448;52.034;5.158;2022-12-05T07:01:39;47.57;;;23.27;;
16669;SDS011;8448;52.034;5.158;2022-12-05T07:04:10;48.07;;;22.60;;
16669;SDS011;8448;52.034;5.158;2022-12-05T07:06:39;46.13;;;23.03;;
16669;SDS011;8448;52.034;5.158;2022-12-05T07:09:07;45.87;;;22.30;;
16669;SDS011;8448;52.034;5.158;2022-12-05T07:11:35;44.33;;;22.23;;
16669;SDS011;8448;52.034;5.158;2022-12-05T07:14:02;49.38;;;24.42;;
16669;SDS011;8448;52.034;5.158;2022-12-05T07:16:30;46.57;;;22.13;;
16669;SDS011;8448;52.034;5.158;2022-12-05T07:18:57;48.70;;;22.20;;
16669;SDS011;8448;52.034;5.158;2022-12-05T07:21:26;47.63;;;22.57;;
16669;SDS011;8448;52.034;5.158;2022-12-05T07:23:53;49.23;;;21.33;;
16669;SDS011;8448;52.034;5.158;2022-12-05T07:26:21;46.50;;;23.20;;
16669;SDS011;8448;52.034;5.158;2022-12-05T07:28:50;46.50;;;22.33;;
16669;SDS011;8448;52.034;5.158;2022-12-05T07:31:18;51.55;;;27.77;;
16669;SDS011;8448;52.034;5.158;2022-12-05T07:33:47;46.50;;;23.43;;
16669;SDS011;8448;52.034;5.158;2022-12-05T07:36:15;46.43;;;22.10;;
16669;SDS011;8448;52.034;5.158;2022-12-05T07:38:45;48.13;;;22.90;;
16669;SDS011;8448;52.034;5.158;2022-12-05T07:41:13;44.13;;;22.13;;
16669;SDS011;8448;52.034;5.158;2022-12-05T07:43:44;46.73;;;22.43;;
16669;SDS011;8448;52.034;5.158;2022-12-05T07:46:12;47.77;;;21.30;;
16669;SDS011;8448;52.034;5.158;2022-12-05T07:48:39;45.57;;;21.30;;
16669;SDS011;8448;52.034;5.158;2022-12-05T07:51:07;44.67;;;21.20;;
16669;SDS011;8448;52.034;5.158;2022-12-05T07:53:35;42.93;;;20.83;;
16669;SDS011;8448;52.034;5.158;2022-12-05T07:56:05;41.57;;;20.43;;
16669;SDS011;8448;52.034;5.158;2022-12-05T07:58:34;38.50;;;20.33;;
16669;SDS011;8448;52.034;5.158;2022-12-05T08:01:04;40.33;;;20.57;;
16669;SDS011;8448;52.034;5.158;2022-12-05T08:03:32;40.97;;;20.47;;
16669;SDS011;8448;52.034;5.158;2022-12-05T08:06:01;38.63;;;20.13;;
16669;SDS011;8448;52.034;5.158;2022-12-05T08:08:29;39.97;;;19.30;;
16669;SDS011;8448;52.034;5.158;2022-12-05T08:11:01;39.30;;;19.77;;
16669;SDS011;8448;52.034;5.158;2022-12-05T08:13:30;38.23;;;19.53;;
16669;SDS011;8448;52.034;5.158;2022-12-05T08:16:01;34.13;;;19.13;;
16669;SDS011;8448;52.034;5.158;2022-12-05T08:18:29;31.67;;;17.00;;
16669;SDS011;8448;52.034;5.158;2022-12-05T08:21:00;36.40;;;18.20;;
16669;SDS011;8448;52.034;5.158;2022-12-05T08:23:27;38.17;;;18.70;;
16669;SDS011;8448;52.034;5.158;2022-12-05T08:25:55;34.20;;;18.37;;
16669;SDS011;8448;52.034;5.158;2022-12-05T08:28:26;33.37;;;18.03;;
16669;SDS011;8448;52.034;5.158;2022-12-05T08:30:54;35.27;;;18.63;;
16669;SDS011;8448;52.034;5.158;2022-12-05T08:33:22;34.20;;;18.67;;
16669;SDS011;8448;52.034;5.158;2022-12-05T08:35:49;36.17;;;18.10;;
16669;SDS011;8448;52.034;5.158;2022-12-05T08:38:16;36.03;;;18.67;;
16669;SDS011;8448;52.034;5.158;2022-12-05T08:40:43;30.43;;;16.97;;
16669;SDS011;8448;52.034;5.158;2022-12-05T08:43:11;29.40;;;16.97;;
16669;SDS011;8448;52.034;5.158;2022-12-05T08:45:39;32.43;;;17.30;;
16669;SDS011;8448;52.034;5.158;2022-12-05T08:48:07;33.10;;;17.57;;
16669;SDS011;8448;52.034;5.158;2022-12-05T08:50:37;30.17;;;16.90;;
16669;SDS011;8448;52.034;5.158;2022-12-05T08:53:05;30.13;;;16.60;;
16669;SDS011;8448;52.034;5.158;2022-12-05T08:55:32;29.87;;;16.77;;
16669;SDS011;8448;52.034;5.158;2022-12-05T08:58:00;29.40;;;16.93;;
16669;SDS011;8448;52.034;5.158;2022-12-05T09:00:27;32.00;;;17.50;;
16669;SDS011;8448;52.034;5.158;2022-12-05T09:02:57;30.67;;;17.23;;
16669;SDS011;8448;52.034;5.158;2022-12-05T09:05:26;30.33;;;16.97;;
16669;SDS011;8448;52.034;5.158;2022-12-05T09:07:53;28.27;;;16.50;;
16669;SDS011;8448;52.034;5.158;2022-12-05T09:10:20;31.50;;;17.33;;
16669;SDS011;8448;52.034;5.158;2022-12-05T09:12:48;30.73;;;17.30;;
16669;SDS011;8448;52.034;5.158;2022-12-05T09:15:15;32.23;;;18.03;;
16669;SDS011;8448;52.034;5.158;2022-12-05T09:17:43;29.60;;;17.53;;
16669;SDS011;8448;52.034;5.158;2022-12-05T09:20:11;29.40;;;16.17;;
16669;SDS011;8448;52.034;5.158;2022-12-05T09:22:40;27.47;;;16.23;;
16669;SDS011;8448;52.034;5.158;2022-12-05T09:25:08;28.30;;;16.03;;
16669;SDS011;8448;52.034;5.158;2022-12-05T09:27:35;27.43;;;16.20;;
16669;SDS011;8448;52.034;5.158;2022-12-05T09:30:02;27.77;;;15.80;;
16669;SDS011;8448;52.034;5.158;2022-12-05T09:32:33;25.20;;;15.03;;
16669;SDS011;8448;52.034;5.158;2022-12-05T09:35:01;26.03;;;15.17;;
16669;SDS011;8448;52.034;5.158;2022-12-05T09:37:28;25.87;;;15.60;;
16669;SDS011;8448;52.034;5.158;2022-12-05T09:39:57;23.47;;;14.53;;
16669;SDS011;8448;52.034;5.158;2022-12-05T09:42:29;23.10;;;14.13;;
16669;SDS011;8448;52.034;5.158;2022-12-05T09:45:07;23.77;;;14.13;;
16669;SDS011;8448;52.034;5.158;2022-12-05T09:47:46;22.97;;;13.73;;
16669;SDS011;8448;52.034;5.158;2022-12-05T09:50:33;22.23;;;13.67;;
16669;SDS011;8448;52.034;5.158;2022-12-05T09:53:05;21.60;;;12.97;;
16669;SDS011;8448;52.034;5.158;2022-12-05T09:55:39;22.43;;;13.43;;
16669;SDS011;8448;52.034;5.158;2022-12-05T09:58:14;20.77;;;12.53;;
16669;SDS011;8448;52.034;5.158;2022-12-05T10:00:46;20.40;;;12.70;;
16669;SDS011;8448;52.034;5.158;2022-12-05T10:03:18;21.77;;;13.03;;
16669;SDS011;8448;52.034;5.158;2022-12-05T10:05:52;20.43;;;12.80;;
16669;SDS011;8448;52.034;5.158;2022-12-05T10:08:25;20.47;;;12.63;;
16669;SDS011;8448;52.034;5.158;2022-12-05T10:10:58;20.63;;;12.73;;
16669;SDS011;8448;52.034;5.158;2022-12-05T10:13:31;18.50;;;12.30;;
16669;SDS011;8448;52.034;5.158;2022-12-05T10:16:16;19.30;;;12.33;;
16669;SDS011;8448;52.034;5.158;2022-12-05T10:18:56;18.50;;;11.50;;
16669;SDS011;8448;52.034;5.158;2022-12-05T10:21:27;20.40;;;12.13;;
16669;SDS011;8448;52.034;5.158;2022-12-05T10:23:58;17.77;;;11.73;;
16669;SDS011;8448;52.034;5.158;2022-12-05T10:26:29;18.50;;;12.27;;
16669;SDS011;8448;52.034;5.158;2022-12-05T10:28:59;16.57;;;11.47;;
16669;SDS011;8448;52.034;5.158;2022-12-05T10:31:32;17.93;;;11.53;;
16669;SDS011;8448;52.034;5.158;2022-12-05T10:34:03;18.10;;;11.27;;
16669;SDS011;8448;52.034;5.158;2022-12-05T10:36:32;17.13;;;11.33;;
16669;SDS011;8448;52.034;5.158;2022-12-05T10:39:00;17.17;;;11.10;;
16669;SDS011;8448;52.034;5.158;2022-12-05T10:41:28;20.00;;;11.87;;
16669;SDS011;8448;52.034;5.158;2022-12-05T10:43:56;16.57;;;10.63;;
16669;SDS011;8448;52.034;5.158;2022-12-05T10:46:24;17.73;;;11.23;;
16669;SDS011;8448;52.034;5.158;2022-12-05T10:48:52;17.60;;;10.90;;
16669;SDS011;8448;52.034;5.158;2022-12-05T10:51:25;16.03;;;11.07;;
16669;SDS011;8448;52.034;5.158;2022-12-05T10:53:53;15.80;;;10.97;;
16669;SDS011;8448;52.034;5.158;2022-12-05T10:56:38;16.20;;;10.40;;
16669;SDS011;8448;52.034;5.158;2022-12-05T10:59:07;15.20;;;9.67;;
16669;SDS011;8448;52.034;5.158;2022-12-05T11:01:36;14.80;;;9.90;;
16669;SDS011;8448;52.034;5.158;2022-12-05T11:04:07;13.77;;;9.33;;
16669;SDS011;8448;52.034;5.158;2022-12-05T11:06:38;13.10;;;8.60;;
16669;SDS011;8448;52.034;5.158;2022-12-05T11:09:20;12.87;;;8.37;;
16669;SDS011;8448;52.034;5.158;2022-12-05T11:14:52;10.93;;;7.63;;
16669;SDS011;8448;52.034;5.158;2022-12-05T11:17:29;10.90;;;7.63;;
16669;SDS011;8448;52.034;5.158;2022-12-05T11:19:58;10.70;;;7.67;;
16669;SDS011;8448;52.034;5.158;2022-12-05T11:22:29;9.63;;;6.97;;
16669;SDS011;8448;52.034;5.158;2022-12-05T11:24:58;10.27;;;6.97;;
16669;SDS011;8448;52.034;5.158;2022-12-05T11:27:29;7.87;;;5.80;;
16669;SDS011;8448;52.034;5.158;2022-12-05T11:29:59;8.83;;;6.50;;
16669;SDS011;8448;52.034;5.158;2022-12-05T11:32:29;8.80;;;5.87;;
16669;SDS011;8448;52.034;5.158;2022-12-05T11:35:02;9.40;;;6.40;;
16669;SDS011;8448;52.034;5.158;2022-12-05T11:37:35;8.50;;;5.80;;
16669;SDS011;8448;52.034;5.158;2022-12-05T11:40:13;8.13;;;5.77;;
16669;SDS011;8448;52.034;5.158;2022-12-05T11:42:46;7.97;;;6.03;;
16669;SDS011;8448;52.034;5.158;2022-12-05T11:45:34;7.90;;;5.70;;
16669;SDS011;8448;52.034;5.158;2022-12-05T11:48:10;9.37;;;6.00;;
16669;SDS011;8448;52.034;5.158;2022-12-05T11:50:45;8.60;;;5.70;;
16669;SDS011;8448;52.034;5.158;2022-12-05T11:53:28;8.70;;;6.10;;
16669;SDS011;8448;52.034;5.158;2022-12-05T11:56:18;10.00;;;6.17;;
16669;SDS011;8448;52.034;5.158;2022-12-05T11:58:57;10.57;;;5.97;;
16669;SDS011;8448;52.034;5.158;2022-12-05T12:01:36;9.50;;;5.97;;
16669;SDS011;8448;52.034;5.158;2022-12-05T12:04:20;7.63;;;5.57;;
16669;SDS011;8448;52.034;5.158;2022-12-05T12:07:02;9.00;;;5.80;;
16669;SDS011;8448;52.034;5.158;2022-12-05T12:09:41;10.03;;;6.10;;
16669;SDS011;8448;52.034;5.158;2022-12-05T12:12:16;9.40;;;5.93;;
16669;SDS011;8448;52.034;5.158;2022-12-05T12:14:52;9.67;;;6.33;;
16669;SDS011;8448;52.034;5.158;2022-12-05T12:17:25;8.50;;;5.73;;
16669;SDS011;8448;52.034;5.158;2022-12-05T12:20:03;9.77;;;6.57;;
16669;SDS011;8448;52.034;5.158;2022-12-05T12:23:05;11.90;;;7.47;;
16669;SDS011;8448;52.034;5.158;2022-12-05T12:25:44;12.00;;;7.17;;
16669;SDS011;8448;52.034;5.158;2022-12-05T12:28:23;9.90;;;6.77;;
16669;SDS011;8448;52.034;5.158;2022-12-05T12:31:06;9.87;;;6.67;;
16669;SDS011;8448;52.034;5.158;2022-12-05T12:33:42;9.60;;;6.23;;
16669;SDS011;8448;52.034;5.158;2022-12-05T12:36:14;8.67;;;6.10;;
16669;SDS011;8448;52.034;5.158;2022-12-05T12:38:46;11.20;;;6.67;;
16669;SDS011;8448;52.034;5.158;2022-12-05T12:41:30;8.77;;;6.00;;
16669;SDS011;8448;52.034;5.158;2022-12-05T12:44:15;9.30;;;6.23;;
16669;SDS011;8448;52.034;5.158;2022-12-05T12:46:54;9.53;;;6.00;;
16669;SDS011;8448;52.034;5.158;2022-12-05T12:49:30;10.90;;;6.60;;
16669;SDS011;8448;52.034;5.158;2022-12-05T12:52:03;9.17;;;6.10;;
16669;SDS011;8448;52.034;5.158;2022-12-05T12:54:40;10.13;;;6.40;;
16669;SDS011;8448;52.034;5.158;2022-12-05T12:57:21;9.83;;;6.27;;
16669;SDS011;8448;52.034;5.158;2022-12-05T12:59:57;9.27;;;6.03;;
16669;SDS011;8448;52.034;5.158;2022-12-05T13:02:32;10.07;;;6.07;;
16669;SDS011;8448;52.034;5.158;2022-12-05T13:05:04;9.93;;;6.07;;
16669;SDS011;8448;52.034;5.158;2022-12-05T13:07:38;9.50;;;6.03;;
16669;SDS011;8448;52.034;5.158;2022-12-05T13:10:11;9.10;;;6.10;;
16669;SDS011;8448;52.034;5.158;2022-12-05T13:12:42;10.43;;;6.70;;
16669;SDS011;8448;52.034;5.158;2022-12-05T13:15:12;11.67;;;6.63;;
16669;SDS011;8448;52.034;5.158;2022-12-05T13:17:43;9.80;;;6.30;;
16669;SDS011;8448;52.034;5.158;2022-12-05T13:20:13;9.73;;;6.87;;
16669;SDS011;8448;52.034;5.158;2022-12-05T13:22:41;9.83;;;6.40;;
16669;SDS011;8448;52.034;5.158;2022-12-05T13:25:12;8.40;;;5.53;;
16669;SDS011;8448;52.034;5.158;2022-12-05T13:27:40;11.10;;;6.20;;
16669;SDS011;8448;52.034;5.158;2022-12-05T13:30:20;8.83;;;5.93;;
16669;SDS011;8448;52.034;5.158;2022-12-05T13:32:55;10.00;;;5.97;;
16669;SDS011;8448;52.034;5.158;2022-12-05T13:35:27;10.10;;;5.80;;
16669;SDS011;8448;52.034;5.158;2022-12-05T13:38:18;8.70;;;5.60;;
16669;SDS011;8448;52.034;5.158;2022-12-05T13:41:04;9.90;;;5.33;;
16669;SDS011;8448;52.034;5.158;2022-12-05T13:43:50;7.97;;;4.83;;
16669;SDS011;8448;52.034;5.158;2022-12-05T13:46:21;7.80;;;5.00;;
16669;SDS011;8448;52.034;5.158;2022-12-05T13:48:56;7.60;;;5.10;;
16669;SDS011;8448;52.034;5.158;2022-12-05T13:51:27;7.17;;;4.80;;
16669;SDS011;8448;52.034;5.158;2022-12-05T13:53:57;7.63;;;5.03;;
16669;SDS011;8448;52.034;5.158;2022-12-05T13:59:12;8.57;;;5.47;;
16669;SDS011;8448;52.034;5.158;2022-12-05T14:11:10;14.70;;;8.43;;
16669;SDS011;8448;52.034;5.158;2022-12-05T14:13:38;11.83;;;6.93;;
16669;SDS011;8448;52.034;5.158;2022-12-05T14:22:19;9.90;;;6.17;;
16669;SDS011;8448;52.034;5.158;2022-12-05T14:25:09;13.47;;;7.40;;
16669;SDS011;8448;52.034;5.158;2022-12-05T14:27:47;13.60;;;7.40;;
16669;SDS011;8448;52.034;5.158;2022-12-05T14:30:20;9.40;;;5.77;;
16669;SDS011;8448;52.034;5.158;2022-12-05T14:32:49;8.37;;;5.60;;
16669;SDS011;8448;52.034;5.158;2022-12-05T14:35:18;8.17;;;5.17;;
16669;SDS011;8448;52.034;5.158;2022-12-05T14:37:51;8.57;;;4.97;;
16669;SDS011;8448;52.034;5.158;2022-12-05T14:40:20;8.80;;;5.23;;
16669;SDS011;8448;52.034;5.158;2022-12-05T14:42:53;9.30;;;5.43;;
16669;SDS011;8448;52.034;5.158;2022-12-05T14:45:23;8.70;;;5.30;;
16669;SDS011;8448;52.034;5.158;2022-12-05T14:47:54;8.33;;;4.90;;
16669;SDS011;8448;52.034;5.158;2022-12-05T14:50:39;7.27;;;4.90;;
16669;SDS011;8448;52.034;5.158;2022-12-05T14:53:24;9.43;;;5.00;;
16669;SDS011;8448;52.034;5.158;2022-12-05T14:56:04;9.30;;;5.10;;
16669;SDS011;8448;52.034;5.158;2022-12-05T14:58:42;7.17;;;4.57;;
16669;SDS011;8448;52.034;5.158;2022-12-05T15:01:14;11.30;;;4.63;;
16669;SDS011;8448;52.034;5.158;2022-12-05T15:03:49;7.17;;;4.50;;
16669;SDS011;8448;52.034;5.158;2022-12-05T15:06:34;7.73;;;4.80;;
16669;SDS011;8448;52.034;5.158;2022-12-05T15:09:21;6.37;;;4.50;;
16669;SDS011;8448;52.034;5.158;2022-12-05T15:11:58;7.50;;;4.63;;
16669;SDS011;8448;52.034;5.158;2022-12-05T15:14:26;8.37;;;4.70;;
16669;SDS011;8448;52.034;5.158;2022-12-05T15:16:55;5.40;;;4.07;;
16669;SDS011;8448;52.034;5.158;2022-12-05T15:19:26;7.07;;;4.30;;
16669;SDS011;8448;52.034;5.158;2022-12-05T15:21:56;7.57;;;4.47;;
16669;SDS011;8448;52.034;5.158;2022-12-05T15:24:27;7.90;;;4.30;;
16669;SDS011;8448;52.034;5.158;2022-12-05T15:27:03;6.67;;;4.40;;
16669;SDS011;8448;52.034;5.158;2022-12-05T15:29:32;6.97;;;4.57;;